This is the latest recevied weather packets stored in our database for station/object JA6CFI-13. If no packets are shown the sender has not sent any weather packets the latest 10 day(s).
| Time | Temp. | Humidity | Pressure | Rain* | Wind** | Luminosity | Snow |
|---|---|---|---|---|---|---|---|
| 1777439245 | 20.56° C | 60% | 1016.6 hPa | 0 mm | - | - | - |
| 1777438466 | 20.56° C | 61% | 1016.5 hPa | 0 mm | - | - | - |
| 1777437729 | 20.56° C | 59% | 1016.4 hPa | 0 mm | - | - | - |
| 1777437685 | 20.56° C | 58% | 1016.4 hPa | 0 mm | - | - | - |
| 1777436906 | 20° C | 63% | 1016.5 hPa | 0 mm | - | - | - |
| 1777436125 | 19.44° C | 65% | 1016.6 hPa | 0 mm | - | - | - |
| 1777435929 | 18.89° C | 65% | 1016.7 hPa | 0 mm | - | - | - |
| 1777435347 | 19.44° C | 63% | 1016.8 hPa | 0 mm | - | - | - |
| 1777434566 | 19.44° C | 65% | 1016.8 hPa | 0 mm | - | - | - |
| 1777434127 | 19.44° C | 66% | 1016.8 hPa | 0 mm | - | - | - |
| 1777433785 | 19.44° C | 66% | 1016.8 hPa | 0 mm | - | - | - |
| 1777433005 | 18.89° C | 67% | 1016.9 hPa | 0 mm | - | - | - |
| 1777432328 | 18.33° C | 68% | 1016.9 hPa | 0 mm | - | - | - |
| 1777432226 | 18.33° C | 68% | 1016.9 hPa | 0 mm | - | - | - |
| 1777431446 | 18.89° C | 68% | 1017 hPa | 0 mm | - | - | - |
| 1777430666 | 18.89° C | 68% | 1017.2 hPa | 0 mm | - | - | - |
| 1777429885 | 18.33° C | 69% | 1017.4 hPa | 0 mm | - | - | - |
| 1777429107 | 18.33° C | 69% | 1017.6 hPa | 0 mm | - | - | - |
| 1777428326 | 17.78° C | 72% | 1017.8 hPa | 0 mm | - | - | - |
| 1777427545 | 17.78° C | 72% | 1017.6 hPa | 0 mm | - | - | - |
| 1777426767 | 17.78° C | 72% | 1017.6 hPa | 0 mm | - | - | - |
| 1777425986 | 17.78° C | 73% | 1017.8 hPa | 0 mm | - | - | - |
| 1777425206 | 17.78° C | 74% | 1017.7 hPa | 0 mm | - | - | - |
| 1777424425 | 17.22° C | 74% | 1017.6 hPa | 0 mm | - | - | - |
| 1777423645 | 17.78° C | 73% | 1017.4 hPa | 0 mm | - | - | - |
* Rain latest hour (hover to see other rain measurements)
** Current wind speed in m/s (hover to see current wind gust speed)